createdAt,value
2018-11-28T00:00:29.808Z,-0.20
2018-11-28T00:02:59.584Z,-0.10
2018-11-28T00:05:28.280Z,-0.20
2018-11-28T00:07:57.033Z,-0.20
2018-11-28T00:10:25.674Z,-0.20
2018-11-28T00:12:54.350Z,-0.10
2018-11-28T00:15:23.021Z,-0.10
2018-11-28T00:17:52.089Z,-0.10
2018-11-28T00:20:22.071Z,-0.20
2018-11-28T00:22:50.701Z,-0.20
2018-11-28T00:25:19.782Z,-0.20
2018-11-28T00:27:48.412Z,-0.20
2018-11-28T00:30:22.616Z,-0.30
2018-11-28T00:32:51.299Z,-0.30
2018-11-28T00:35:21.038Z,-0.30
2018-11-28T00:37:49.728Z,-0.30
2018-11-28T00:40:19.651Z,-0.30
2018-11-28T00:42:48.338Z,-0.30
2018-11-28T00:45:18.583Z,-0.30
2018-11-28T00:47:47.379Z,-0.30
2018-11-28T00:50:23.886Z,-0.30
2018-11-28T00:52:52.593Z,-0.30
2018-11-28T00:55:21.229Z,-0.30
2018-11-28T00:57:49.829Z,-0.30
2018-11-28T01:00:20.113Z,-0.30
2018-11-28T01:02:49.414Z,-0.30
2018-11-28T01:05:18.413Z,-0.40
2018-11-28T01:07:48.041Z,-0.40
2018-11-28T01:10:18.814Z,-0.40
2018-11-28T01:12:47.864Z,-0.40
2018-11-28T01:15:17.497Z,-0.40
2018-11-28T01:17:46.338Z,-0.50
2018-11-28T01:20:18.343Z,-0.50
2018-11-28T01:22:47.067Z,-0.40
2018-11-28T01:25:19.736Z,-0.40
2018-11-28T01:27:48.581Z,-0.50
2018-11-28T01:30:19.472Z,-0.40
2018-11-28T01:32:48.235Z,-0.40
2018-11-28T01:35:18.519Z,-0.40
2018-11-28T01:37:47.267Z,-0.40
2018-11-28T01:40:17.616Z,-0.40
2018-11-28T01:42:46.233Z,-0.50
2018-11-28T01:45:17.726Z,-0.50
2018-11-28T01:47:46.666Z,-0.50
2018-11-28T01:50:19.253Z,-0.60
2018-11-28T01:52:47.924Z,-0.60
2018-11-28T01:55:17.578Z,-0.60
2018-11-28T01:57:46.424Z,-0.50
2018-11-28T02:00:20.881Z,-0.50
2018-11-28T02:02:52.870Z,-0.50
2018-11-28T02:05:21.474Z,-0.50
2018-11-28T02:07:50.149Z,-0.50
2018-11-28T02:10:18.839Z,-0.50
2018-11-28T02:12:47.480Z,-0.50
2018-11-28T02:15:18.037Z,-0.50
2018-11-28T02:17:46.757Z,-0.50
2018-11-28T02:20:17.158Z,-0.50
2018-11-28T02:22:46.254Z,-0.50
2018-11-28T02:25:15.815Z,-0.50
2018-11-28T02:27:44.652Z,-0.50
2018-11-28T02:30:15.313Z,-0.50
2018-11-28T02:32:44.337Z,-0.50
2018-11-28T02:35:13.839Z,-0.40
2018-11-28T02:37:42.722Z,-0.40
2018-11-28T02:40:14.470Z,-0.40
2018-11-28T02:42:43.125Z,-0.40
2018-11-28T02:45:16.880Z,-0.40
2018-11-28T02:47:45.651Z,-0.40
2018-11-28T02:50:14.620Z,-0.40
2018-11-28T02:52:43.366Z,-0.40
2018-11-28T02:55:12.841Z,-0.50
2018-11-28T02:57:46.270Z,-0.60
2018-11-28T03:00:16.961Z,-0.60
2018-11-28T03:02:45.759Z,-0.50
2018-11-28T03:05:14.935Z,-0.50
2018-11-28T03:07:43.683Z,-0.50
2018-11-28T03:10:13.812Z,-0.50
2018-11-28T03:12:42.600Z,-0.50
2018-11-28T03:15:22.205Z,-0.40
2018-11-28T03:17:50.900Z,-0.40
2018-11-28T03:20:19.557Z,-0.50
2018-11-28T03:22:48.314Z,-0.50
2018-11-28T03:25:16.989Z,-0.50
2018-11-28T03:27:45.770Z,-0.50
2018-11-28T03:30:15.497Z,-0.40
2018-11-28T03:32:44.275Z,-0.50
2018-11-28T03:35:15.716Z,-0.40
2018-11-28T03:37:44.580Z,-0.40
2018-11-28T03:40:13.625Z,-0.50
2018-11-28T03:42:42.571Z,-0.50
2018-11-28T03:45:13.708Z,-0.50
2018-11-28T03:47:43.117Z,-0.40
2018-11-28T03:50:13.254Z,-0.40
2018-11-28T03:52:41.934Z,-0.30
2018-11-28T03:55:12.803Z,-0.30
2018-11-28T03:57:41.529Z,-0.30
2018-11-28T04:00:14.394Z,-0.30
2018-11-28T04:02:43.162Z,-0.20
2018-11-28T04:05:13.551Z,-0.20
2018-11-28T04:07:42.208Z,-0.30
2018-11-28T04:10:13.031Z,-0.30
2018-11-28T04:12:42.567Z,-0.30
2018-11-28T04:15:18.396Z,-0.20
2018-11-28T04:17:47.160Z,-0.20
2018-11-28T04:20:17.560Z,-0.10
2018-11-28T04:22:46.245Z,-0.10
2018-11-28T04:25:15.978Z,-0.10
2018-11-28T04:27:44.652Z,-0.10
2018-11-28T04:30:17.124Z,-0.10
2018-11-28T04:32:46.546Z,0.00
2018-11-28T04:35:15.646Z,-0.10
2018-11-28T04:37:45.248Z,0.00
2018-11-28T04:40:19.100Z,-0.10
2018-11-28T04:42:49.319Z,-0.10
2018-11-28T04:45:20.387Z,0.00
2018-11-28T04:47:49.197Z,-0.10
2018-11-28T04:50:17.896Z,0.00
2018-11-28T04:52:46.685Z,0.00
2018-11-28T04:55:19.026Z,0.00
2018-11-28T04:57:47.975Z,0.10
2018-11-28T05:00:21.550Z,0.10
2018-11-28T05:02:50.404Z,0.20
2018-11-28T05:05:19.243Z,0.20
2018-11-28T05:07:49.809Z,0.30
2018-11-28T05:10:20.664Z,0.30
2018-11-28T05:12:51.446Z,0.30
2018-11-28T05:15:21.120Z,0.30
2018-11-28T05:17:51.110Z,0.30
2018-11-28T05:20:27.759Z,0.30
2018-11-28T05:22:56.927Z,0.40
2018-11-28T05:25:28.142Z,0.40
2018-11-28T05:27:57.532Z,0.30
2018-11-28T05:30:27.372Z,0.40
2018-11-28T05:32:56.066Z,0.40
2018-11-28T05:35:29.222Z,0.40
2018-11-28T05:37:58.305Z,0.40
2018-11-28T05:40:27.794Z,0.50
2018-11-28T05:42:56.719Z,0.40
2018-11-28T05:45:25.436Z,0.40
2018-11-28T05:47:54.207Z,0.40
2018-11-28T05:50:23.201Z,0.40
2018-11-28T05:52:52.349Z,0.50
2018-11-28T05:55:22.103Z,0.50
2018-11-28T05:57:50.823Z,0.60
2018-11-28T06:00:39.019Z,0.60
2018-11-28T06:03:08.787Z,0.50
2018-11-28T06:05:37.541Z,0.50
2018-11-28T06:08:07.377Z,0.60
2018-11-28T06:10:36.205Z,0.60
2018-11-28T06:13:04.913Z,0.70
2018-11-28T06:15:33.561Z,0.70
2018-11-28T06:18:02.230Z,0.70
2018-11-28T06:20:30.976Z,0.60
2018-11-28T06:22:59.695Z,0.60
2018-11-28T06:25:28.430Z,0.70
2018-11-28T06:27:57.123Z,0.60
2018-11-28T06:30:25.862Z,0.60
2018-11-28T06:32:55.260Z,0.60
2018-11-28T06:35:24.051Z,0.70
2018-11-28T06:37:52.734Z,0.70
2018-11-28T06:40:24.214Z,0.60
2018-11-28T06:42:49.978Z,0.70
2018-11-28T06:45:20.306Z,0.70
2018-11-28T06:47:49.145Z,0.70
2018-11-28T06:50:19.211Z,0.80
2018-11-28T06:52:51.127Z,0.90
2018-11-28T06:55:21.527Z,0.90
2018-11-28T06:57:50.329Z,0.90
2018-11-28T07:00:23.379Z,0.90
2018-11-28T07:02:53.249Z,1.00
2018-11-28T07:05:22.701Z,1.00
2018-11-28T07:07:51.818Z,1.00
2018-11-28T07:10:21.558Z,1.00
2018-11-28T07:12:50.415Z,1.10
2018-11-28T07:15:20.937Z,1.40
2018-11-28T07:17:49.742Z,1.40
2018-11-28T07:20:19.542Z,1.40
2018-11-28T07:22:48.294Z,1.50
2018-11-28T07:25:18.562Z,2.00
2018-11-28T07:27:48.111Z,2.60
2018-11-28T07:30:21.737Z,2.40
2018-11-28T07:32:52.727Z,2.10
2018-11-28T07:35:21.430Z,2.10
2018-11-28T07:37:50.210Z,2.00
2018-11-28T07:40:21.561Z,1.90
2018-11-28T07:43:14.859Z,1.90
2018-11-28T07:45:45.039Z,1.70
2018-11-28T07:48:13.838Z,1.80
2018-11-28T07:50:42.547Z,1.70
2018-11-28T07:53:11.289Z,1.70
2018-11-28T07:55:40.195Z,1.60
2018-11-28T07:58:08.837Z,1.60
2018-11-28T08:00:37.839Z,1.70
2018-11-28T08:03:08.983Z,1.80
2018-11-28T08:05:38.568Z,1.80
2018-11-28T08:08:09.764Z,1.80
2018-11-28T08:10:38.502Z,1.90
2018-11-28T08:13:08.242Z,1.80
2018-11-28T08:15:37.499Z,1.90
2018-11-28T08:18:06.351Z,1.90
2018-11-28T08:20:35.740Z,2.00
2018-11-28T08:23:04.553Z,2.00
2018-11-28T08:25:33.385Z,1.90
2018-11-28T08:28:02.092Z,2.00
2018-11-28T08:30:30.870Z,2.00
2018-11-28T08:32:59.508Z,2.00
2018-11-28T08:35:28.353Z,2.10
2018-11-28T08:37:56.982Z,2.10
2018-11-28T08:40:27.459Z,2.10
2018-11-28T08:42:57.245Z,2.10
2018-11-28T08:45:25.980Z,2.20
2018-11-28T08:47:56.174Z,2.30
2018-11-28T08:50:28.476Z,2.40
2018-11-28T08:52:57.220Z,2.50
2018-11-28T08:55:26.118Z,2.60
2018-11-28T08:57:54.950Z,2.60
2018-11-28T09:00:24.747Z,2.80
2018-11-28T09:02:55.762Z,2.70
2018-11-28T09:05:24.667Z,2.70
2018-11-28T09:07:53.953Z,2.80
2018-11-28T09:10:22.668Z,2.70
2018-11-28T09:12:51.965Z,2.80
2018-11-28T09:15:23.853Z,2.80
2018-11-28T09:17:52.496Z,2.90
2018-11-28T09:20:21.194Z,3.00
2018-11-28T09:22:49.860Z,3.10
2018-11-28T09:25:19.095Z,3.10
2018-11-28T09:27:50.965Z,3.20
2018-11-28T09:30:20.289Z,3.20
2018-11-28T09:32:49.933Z,3.40
2018-11-28T09:35:19.264Z,3.40
2018-11-28T09:37:48.123Z,3.50
2018-11-28T09:40:20.841Z,3.50
2018-11-28T09:42:50.681Z,3.60
2018-11-28T09:45:19.915Z,3.80
2018-11-28T09:47:48.599Z,3.80
2018-11-28T09:50:20.173Z,3.90
2018-11-28T09:52:48.878Z,3.90
2018-11-28T09:55:18.817Z,3.90
2018-11-28T09:57:47.557Z,4.00
2018-11-28T10:00:19.167Z,4.10
2018-11-28T10:02:48.522Z,4.20
2018-11-28T10:05:20.559Z,4.30
2018-11-28T10:07:49.553Z,4.30
2018-11-28T10:10:18.333Z,4.30
2018-11-28T10:12:47.011Z,4.50
2018-11-28T10:15:18.044Z,4.50
2018-11-28T10:17:47.171Z,4.50
2018-11-28T10:20:16.524Z,4.60
2018-11-28T10:22:45.777Z,4.80
2018-11-28T10:25:16.612Z,4.80
2018-11-28T10:27:47.492Z,5.00
2018-11-28T10:30:24.121Z,5.10
2018-11-28T10:32:53.410Z,5.10
2018-11-28T10:35:22.144Z,5.20
2018-11-28T10:37:50.897Z,5.20
2018-11-28T10:40:21.379Z,5.20
2018-11-28T10:42:51.188Z,5.20
2018-11-28T10:45:21.693Z,5.20
2018-11-28T10:47:50.547Z,5.20
2018-11-28T10:50:20.107Z,5.30
2018-11-28T10:52:48.902Z,5.20
2018-11-28T10:55:22.548Z,5.30
2018-11-28T10:57:51.339Z,5.30
2018-11-28T11:00:28.574Z,5.30
2018-11-28T11:03:02.668Z,5.40
2018-11-28T11:05:36.839Z,5.50
2018-11-28T11:08:11.182Z,5.50
2018-11-28T11:10:45.126Z,5.50
2018-11-28T11:13:19.230Z,5.50
2018-11-28T11:15:53.320Z,5.50
2018-11-28T11:18:22.832Z,5.60
2018-11-28T11:20:51.553Z,5.60
2018-11-28T11:23:20.601Z,5.60
2018-11-28T11:25:49.562Z,5.70
2018-11-28T11:28:18.396Z,5.80
2018-11-28T11:30:47.131Z,5.90
2018-11-28T11:33:15.863Z,6.00
2018-11-28T11:35:44.516Z,6.10
2018-11-28T11:38:13.213Z,6.10
2018-11-28T11:40:41.846Z,6.20
2018-11-28T11:43:10.886Z,6.20
2018-11-28T11:45:39.785Z,6.30
2018-11-28T11:48:08.542Z,6.30
2018-11-28T11:50:37.269Z,6.40
2018-11-28T11:53:06.582Z,6.30
2018-11-28T11:55:36.376Z,6.50
2018-11-28T11:58:06.612Z,6.60
2018-11-28T12:00:35.762Z,6.70
2018-11-28T12:03:11.732Z,6.70
2018-11-28T12:05:49.789Z,6.70
2018-11-28T12:08:18.464Z,6.60
2018-11-28T12:10:47.965Z,6.50
2018-11-28T12:13:16.695Z,6.50
2018-11-28T12:15:45.357Z,6.50
2018-11-28T12:18:14.036Z,6.60
2018-11-28T12:20:46.221Z,6.60
2018-11-28T12:23:15.436Z,6.70
2018-11-28T12:25:44.049Z,6.80
2018-11-28T12:28:13.977Z,6.80
2018-11-28T12:30:41.411Z,6.80
2018-11-28T12:33:10.174Z,6.90
2018-11-28T12:35:39.550Z,6.90
2018-11-28T12:38:08.275Z,7.00
2018-11-28T12:40:37.448Z,7.00
2018-11-28T12:43:08.584Z,7.00
2018-11-28T12:45:39.018Z,7.00
2018-11-28T12:48:07.704Z,7.10
2018-11-28T12:50:36.382Z,7.20
2018-11-28T12:53:06.039Z,7.20
2018-11-28T12:55:36.303Z,7.20
2018-11-28T12:58:06.169Z,7.30
2018-11-28T13:00:36.751Z,7.30
2018-11-28T13:03:07.330Z,7.30
2018-11-28T13:05:36.430Z,7.30
2018-11-28T13:08:05.389Z,7.30
2018-11-28T13:10:36.048Z,7.40
2018-11-28T13:13:05.613Z,7.30
2018-11-28T13:15:34.609Z,7.40
2018-11-28T13:18:06.343Z,7.50
2018-11-28T13:20:35.325Z,7.50
2018-11-28T13:23:04.241Z,7.50
2018-11-28T13:25:33.063Z,7.50
2018-11-28T13:28:02.783Z,7.50
2018-11-28T13:30:31.455Z,7.50
2018-11-28T13:33:00.170Z,7.60
2018-11-28T13:35:28.933Z,7.60
2018-11-28T13:38:03.023Z,7.60
2018-11-28T13:40:31.835Z,7.70
2018-11-28T13:43:00.603Z,7.70
2018-11-28T13:45:31.057Z,7.70
2018-11-28T13:47:59.824Z,7.70
2018-11-28T13:50:28.498Z,7.80
2018-11-28T13:52:57.978Z,7.80
2018-11-28T13:55:40.160Z,7.80
2018-11-28T13:58:03.195Z,7.90
2018-11-28T14:00:31.976Z,8.00
2018-11-28T14:03:00.625Z,8.10
2018-11-28T14:05:29.415Z,8.00
2018-11-28T14:07:58.110Z,8.00
2018-11-28T14:10:26.878Z,8.00
2018-11-28T14:12:55.566Z,7.90
2018-11-28T14:15:24.404Z,7.90
2018-11-28T14:18:01.145Z,7.90
2018-11-28T14:20:29.829Z,7.90
2018-11-28T14:22:58.451Z,7.90
2018-11-28T14:25:27.244Z,7.80
2018-11-28T14:27:55.875Z,7.80
2018-11-28T14:30:25.337Z,7.90
2018-11-28T14:32:53.980Z,7.80
2018-11-28T14:35:23.306Z,7.80
2018-11-28T14:37:51.962Z,7.70
2018-11-28T14:40:24.750Z,7.70
2018-11-28T14:42:54.532Z,7.70
2018-11-28T14:45:23.316Z,7.70
2018-11-28T14:47:52.365Z,7.60
2018-11-28T14:50:23.076Z,7.60
2018-11-28T14:52:52.744Z,7.60
2018-11-28T14:55:23.506Z,7.70
2018-11-28T14:57:52.444Z,7.70
2018-11-28T15:00:26.307Z,7.70
2018-11-28T15:02:57.978Z,7.60
2018-11-28T15:05:37.640Z,7.50
2018-11-28T15:08:12.843Z,7.50
2018-11-28T15:10:56.292Z,7.60
2018-11-28T15:13:25.361Z,7.40
2018-11-28T15:15:54.141Z,7.40
2018-11-28T15:18:23.148Z,7.40
2018-11-28T15:20:51.876Z,7.50
2018-11-28T15:26:00.584Z,7.40
2018-11-28T15:28:29.344Z,7.40
2018-11-28T15:30:58.172Z,7.30
2018-11-28T15:33:26.961Z,7.30
2018-11-28T15:35:55.672Z,7.30
2018-11-28T15:38:24.643Z,7.30
2018-11-28T15:40:53.529Z,7.40
2018-11-28T15:43:22.234Z,7.30
2018-11-28T15:45:51.133Z,7.30
2018-11-28T15:48:19.919Z,7.40
2018-11-28T15:53:32.140Z,7.20
2018-11-28T15:56:01.044Z,7.20
2018-11-28T15:58:30.022Z,7.10
2018-11-28T16:00:58.766Z,7.10
2018-11-28T16:03:27.555Z,7.10
2018-11-28T16:05:56.493Z,7.00
2018-11-28T16:08:25.216Z,7.00
2018-11-28T16:10:54.166Z,7.00
2018-11-28T16:13:23.025Z,7.10
2018-11-28T16:15:54.099Z,7.10
2018-11-28T16:18:22.876Z,7.00
2018-11-28T16:20:51.617Z,7.00
2018-11-28T16:23:20.333Z,7.00
2018-11-28T16:25:49.042Z,7.10
2018-11-28T16:28:17.774Z,7.10
2018-11-28T16:30:46.736Z,7.20
2018-11-28T16:33:15.397Z,7.20
2018-11-28T16:35:44.198Z,7.20
2018-11-28T16:38:13.011Z,7.30
2018-11-28T16:40:42.488Z,7.30
2018-11-28T16:43:11.249Z,7.30
2018-11-28T16:45:39.931Z,7.30
2018-11-28T16:48:08.644Z,7.30
2018-11-28T16:50:37.541Z,7.30
2018-11-28T16:53:06.891Z,7.30
2018-11-28T16:55:35.655Z,7.30
2018-11-28T16:58:04.516Z,7.30
2018-11-28T17:00:34.637Z,7.30
2018-11-28T17:03:03.456Z,7.30
2018-11-28T17:05:32.211Z,7.20
2018-11-28T17:08:01.104Z,7.20
2018-11-28T17:10:30.619Z,7.20
2018-11-28T17:13:00.535Z,7.20
2018-11-28T17:15:29.379Z,7.30
2018-11-28T17:17:58.212Z,7.10
2018-11-28T17:20:28.222Z,7.20
2018-11-28T17:22:58.867Z,7.30
2018-11-28T17:25:31.856Z,7.30
2018-11-28T17:28:00.592Z,7.30
2018-11-28T17:30:31.903Z,7.20
2018-11-28T17:33:00.544Z,7.20
2018-11-28T17:35:29.129Z,7.20
2018-11-28T17:37:58.232Z,7.20
2018-11-28T17:40:28.162Z,7.10
2018-11-28T17:42:58.473Z,7.10
2018-11-28T17:45:28.205Z,7.10
2018-11-28T17:47:57.045Z,7.00
2018-11-28T17:50:26.616Z,7.00
2018-11-28T17:53:09.709Z,7.00
2018-11-28T17:55:44.353Z,7.00
2018-11-28T17:58:13.075Z,6.90
2018-11-28T18:00:41.878Z,6.80
2018-11-28T18:03:10.564Z,6.80
2018-11-28T18:05:39.978Z,6.60
2018-11-28T18:08:08.697Z,6.50
2018-11-28T18:10:37.303Z,6.50
2018-11-28T18:13:09.304Z,6.50
2018-11-28T18:15:38.423Z,6.50
2018-11-28T18:18:08.718Z,6.50
2018-11-28T18:20:37.594Z,6.50
2018-11-28T18:23:08.628Z,6.50
2018-11-28T18:25:37.551Z,6.50
2018-11-28T18:28:07.647Z,6.40
2018-11-28T18:30:36.697Z,6.30
2018-11-28T18:33:05.919Z,6.30
2018-11-28T18:35:34.605Z,6.30
2018-11-28T18:38:03.515Z,6.30
2018-11-28T18:40:32.168Z,6.30
2018-11-28T18:43:00.949Z,6.30
2018-11-28T18:45:31.617Z,6.30
2018-11-28T18:48:00.394Z,6.30
2018-11-28T18:50:29.070Z,6.20
2018-11-28T18:52:58.236Z,6.20
2018-11-28T18:55:27.063Z,6.20
2018-11-28T18:57:56.800Z,6.20
2018-11-28T19:00:26.438Z,6.20
2018-11-28T19:02:56.565Z,6.20
2018-11-28T19:05:25.987Z,6.10
2018-11-28T19:07:54.856Z,6.20
2018-11-28T19:10:26.550Z,6.20
2018-11-28T19:12:54.710Z,6.20
2018-11-28T19:15:24.863Z,6.10
2018-11-28T19:17:54.315Z,6.10
2018-11-28T19:20:23.882Z,6.20
2018-11-28T19:22:55.577Z,6.20
2018-11-28T19:25:25.118Z,6.00
2018-11-28T19:27:53.766Z,6.00
2018-11-28T19:30:30.663Z,6.00
2018-11-28T19:32:54.134Z,6.00
2018-11-28T19:35:23.798Z,6.00
2018-11-28T19:37:51.684Z,6.00
2018-11-28T19:40:26.569Z,6.00
2018-11-28T19:42:55.442Z,6.00
2018-11-28T19:45:24.099Z,6.00
2018-11-28T19:47:52.756Z,5.90
2018-11-28T19:50:25.032Z,6.00
2018-11-28T19:52:53.999Z,6.10
2018-11-28T19:55:22.676Z,6.10
2018-11-28T19:57:51.344Z,6.10
2018-11-28T20:00:20.213Z,6.00
2018-11-28T20:02:48.815Z,6.10
2018-11-28T20:05:17.771Z,6.20
2018-11-28T20:07:47.835Z,6.20
2018-11-28T20:10:17.819Z,6.10
2018-11-28T20:12:46.534Z,6.00
2018-11-28T20:15:30.716Z,6.10
2018-11-28T20:17:59.382Z,6.20
2018-11-28T20:20:28.025Z,6.20
2018-11-28T20:22:56.989Z,6.30
2018-11-28T20:25:25.816Z,6.20
2018-11-28T20:28:00.813Z,6.30
2018-11-28T20:30:32.428Z,6.30
2018-11-28T20:33:01.126Z,6.20
2018-11-28T20:38:18.158Z,6.20
2018-11-28T20:40:46.844Z,6.30
2018-11-28T20:43:15.699Z,6.30
2018-11-28T20:45:44.630Z,6.40
2018-11-28T20:48:13.406Z,6.40
2018-11-28T20:50:42.113Z,6.40
2018-11-28T20:53:13.730Z,6.30
2018-11-28T20:55:42.459Z,6.40
2018-11-28T20:58:11.165Z,6.40
2018-11-28T21:00:40.024Z,6.40
2018-11-28T21:03:08.806Z,6.30
2018-11-28T21:05:37.676Z,6.40
2018-11-28T21:08:08.622Z,6.40
2018-11-28T21:10:40.497Z,6.40
2018-11-28T21:13:11.339Z,6.40
2018-11-28T21:15:40.530Z,6.30
2018-11-28T21:18:09.734Z,6.40
2018-11-28T21:20:40.063Z,6.40
2018-11-28T21:23:11.109Z,6.40
2018-11-28T21:25:39.806Z,6.40
2018-11-28T21:30:48.058Z,6.50
2018-11-28T21:33:16.673Z,6.50
2018-11-28T21:35:48.558Z,6.50
2018-11-28T21:38:17.241Z,6.60
2018-11-28T21:40:45.909Z,6.70
2018-11-28T21:43:14.710Z,6.60
2018-11-28T21:45:43.438Z,6.70
2018-11-28T21:48:12.137Z,6.60
2018-11-28T21:50:41.850Z,6.60
2018-11-28T21:53:10.515Z,6.60
2018-11-28T21:55:39.279Z,6.60
2018-11-28T21:58:07.993Z,6.70
2018-11-28T22:00:37.420Z,6.70
2018-11-28T22:03:07.804Z,6.70
2018-11-28T22:05:36.526Z,6.70
2018-11-28T22:08:05.313Z,6.70
2018-11-28T22:10:34.138Z,6.70
2018-11-28T22:13:02.992Z,6.80
2018-11-28T22:15:31.622Z,6.90
2018-11-28T22:18:00.571Z,6.90
2018-11-28T22:20:29.321Z,6.90
2018-11-28T22:22:58.065Z,6.90
2018-11-28T22:25:27.703Z,7.00
2018-11-28T22:27:56.654Z,7.00
2018-11-28T22:30:27.549Z,6.90
2018-11-28T22:32:57.048Z,6.90
2018-11-28T22:35:25.766Z,6.90
2018-11-28T22:37:54.490Z,6.90
2018-11-28T22:40:29.477Z,7.00
2018-11-28T22:42:58.159Z,7.00
2018-11-28T22:45:29.371Z,7.00
2018-11-28T22:47:58.147Z,7.00
2018-11-28T22:50:26.885Z,7.00
2018-11-28T22:52:56.686Z,7.00
2018-11-28T22:55:25.380Z,7.00
2018-11-28T22:57:54.021Z,7.10
2018-11-28T23:00:29.780Z,7.20
2018-11-28T23:03:01.017Z,7.20
2018-11-28T23:05:38.648Z,7.10
2018-11-28T23:08:08.953Z,7.10
2018-11-28T23:10:38.509Z,7.10
2018-11-28T23:13:08.291Z,7.10
2018-11-28T23:15:36.924Z,7.20
2018-11-28T23:18:06.546Z,7.10
2018-11-28T23:20:35.182Z,7.10
2018-11-28T23:23:04.044Z,7.10
2018-11-28T23:25:32.741Z,7.20
2018-11-28T23:28:01.399Z,7.20
2018-11-28T23:30:30.129Z,7.20
2018-11-28T23:32:58.740Z,7.20
2018-11-28T23:35:27.468Z,7.20
2018-11-28T23:37:56.127Z,7.20
2018-11-28T23:40:25.893Z,7.30
2018-11-28T23:42:56.302Z,7.40
2018-11-28T23:45:25.735Z,7.30
2018-11-28T23:47:54.570Z,7.40
2018-11-28T23:50:24.902Z,7.50
2018-11-28T23:52:54.347Z,7.50
2018-11-28T23:55:27.283Z,7.50
2018-11-28T23:57:55.999Z,7.50
